sensor_id;sensor_type;location;lat;lon;timestamp;P1;durP1;ratioP1;P2;durP2;ratioP2
21416;SDS011;10869;52.238;10.716;2022-11-09T04:03:08;3.73;;;1.10;;
21416;SDS011;10869;52.238;10.716;2022-11-09T04:05:34;3.97;;;1.20;;
21416;SDS011;10869;52.238;10.716;2022-11-09T04:08:00;5.33;;;1.60;;
21416;SDS011;10869;52.238;10.716;2022-11-09T04:10:26;3.47;;;1.07;;
21416;SDS011;10869;52.238;10.716;2022-11-09T04:12:51;3.23;;;1.37;;
21416;SDS011;10869;52.238;10.716;2022-11-09T04:15:17;2.73;;;1.30;;
21416;SDS011;10869;52.238;10.716;2022-11-09T04:17:44;3.20;;;1.30;;
21416;SDS011;10869;52.238;10.716;2022-11-09T04:20:28;2.80;;;1.30;;
21416;SDS011;10869;52.238;10.716;2022-11-09T04:22:56;3.30;;;1.10;;
21416;SDS011;10869;52.238;10.716;2022-11-09T04:25:24;2.80;;;1.30;;
21416;SDS011;10869;52.238;10.716;2022-11-09T04:27:54;3.83;;;1.57;;
21416;SDS011;10869;52.238;10.716;2022-11-09T04:30:24;4.07;;;1.20;;
21416;SDS011;10869;52.238;10.716;2022-11-09T04:32:57;4.63;;;1.23;;
21416;SDS011;10869;52.238;10.716;2022-11-09T04:35:24;5.20;;;1.80;;
21416;SDS011;10869;52.238;10.716;2022-11-09T04:41:12;5.87;;;1.50;;
21416;SDS011;10869;52.238;10.716;2022-11-09T04:43:38;4.17;;;1.70;;
21416;SDS011;10869;52.238;10.716;2022-11-09T04:46:04;3.73;;;1.40;;
21416;SDS011;10869;52.238;10.716;2022-11-09T04:48:30;5.27;;;1.50;;
21416;SDS011;10869;52.238;10.716;2022-11-09T04:50:58;2.03;;;1.10;;
21416;SDS011;10869;52.238;10.716;2022-11-09T04:53:28;4.40;;;1.47;;
21416;SDS011;10869;52.238;10.716;2022-11-09T04:55:55;4.23;;;1.40;;
21416;SDS011;10869;52.238;10.716;2022-11-09T04:58:21;3.63;;;1.20;;
21416;SDS011;10869;52.238;10.716;2022-11-09T05:00:47;5.27;;;1.37;;
21416;SDS011;10869;52.238;10.716;2022-11-09T05:03:13;5.77;;;1.60;;
21416;SDS011;10869;52.238;10.716;2022-11-09T05:05:39;2.97;;;1.37;;
21416;SDS011;10869;52.238;10.716;2022-11-09T05:08:06;3.03;;;1.30;;
21416;SDS011;10869;52.238;10.716;2022-11-09T05:10:33;4.30;;;1.47;;
21416;SDS011;10869;52.238;10.716;2022-11-09T05:13:01;5.67;;;1.40;;
21416;SDS011;10869;52.238;10.716;2022-11-09T05:15:28;3.97;;;1.20;;
21416;SDS011;10869;52.238;10.716;2022-11-09T05:17:55;5.73;;;1.67;;
21416;SDS011;10869;52.238;10.716;2022-11-09T05:20:21;4.73;;;1.53;;
21416;SDS011;10869;52.238;10.716;2022-11-09T05:22:48;6.50;;;1.70;;
21416;SDS011;10869;52.238;10.716;2022-11-09T05:25:36;5.40;;;1.53;;
21416;SDS011;10869;52.238;10.716;2022-11-09T05:28:02;4.00;;;1.30;;
21416;SDS011;10869;52.238;10.716;2022-11-09T05:30:29;3.73;;;1.27;;
21416;SDS011;10869;52.238;10.716;2022-11-09T05:32:55;3.20;;;1.37;;
21416;SDS011;10869;52.238;10.716;2022-11-09T05:35:21;3.50;;;1.20;;
21416;SDS011;10869;52.238;10.716;2022-11-09T05:37:47;7.20;;;3.10;;
21416;SDS011;10869;52.238;10.716;2022-11-09T05:40:14;6.17;;;2.30;;
21416;SDS011;10869;52.238;10.716;2022-11-09T05:42:41;5.83;;;2.30;;
21416;SDS011;10869;52.238;10.716;2022-11-09T05:45:08;11.27;;;4.70;;
21416;SDS011;10869;52.238;10.716;2022-11-09T05:47:43;6.10;;;2.10;;
21416;SDS011;10869;52.238;10.716;2022-11-09T05:50:17;5.87;;;2.23;;
21416;SDS011;10869;52.238;10.716;2022-11-09T05:52:44;4.40;;;1.50;;
21416;SDS011;10869;52.238;10.716;2022-11-09T05:55:12;6.03;;;2.00;;
21416;SDS011;10869;52.238;10.716;2022-11-09T05:57:44;12.30;;;5.27;;
21416;SDS011;10869;52.238;10.716;2022-11-09T06:00:12;7.30;;;2.60;;
21416;SDS011;10869;52.238;10.716;2022-11-09T06:02:39;3.07;;;1.10;;
21416;SDS011;10869;52.238;10.716;2022-11-09T06:05:05;3.17;;;1.33;;
21416;SDS011;10869;52.238;10.716;2022-11-09T06:07:31;4.83;;;1.50;;
21416;SDS011;10869;52.238;10.716;2022-11-09T06:09:57;6.33;;;1.63;;
21416;SDS011;10869;52.238;10.716;2022-11-09T06:12:23;3.23;;;1.20;;
21416;SDS011;10869;52.238;10.716;2022-11-09T06:14:51;4.80;;;1.50;;
21416;SDS011;10869;52.238;10.716;2022-11-09T06:17:26;2.00;;;1.10;;
21416;SDS011;10869;52.238;10.716;2022-11-09T06:19:52;3.57;;;1.17;;
21416;SDS011;10869;52.238;10.716;2022-11-09T06:25:40;2.77;;;1.30;;
21416;SDS011;10869;52.238;10.716;2022-11-09T06:31:42;5.63;;;1.00;;
21416;SDS011;10869;52.238;10.716;2022-11-09T06:34:22;3.33;;;1.20;;
21416;SDS011;10869;52.238;10.716;2022-11-09T06:36:48;4.13;;;1.10;;
21416;SDS011;10869;52.238;10.716;2022-11-09T06:39:14;3.50;;;1.30;;
21416;SDS011;10869;52.238;10.716;2022-11-09T06:41:50;3.20;;;1.27;;
21416;SDS011;10869;52.238;10.716;2022-11-09T06:44:18;2.77;;;1.20;;
21416;SDS011;10869;52.238;10.716;2022-11-09T06:46:45;2.23;;;0.90;;
21416;SDS011;10869;52.238;10.716;2022-11-09T06:57:44;3.53;;;1.20;;
21416;SDS011;10869;52.238;10.716;2022-11-09T07:00:37;1.00;;;0.70;;
21416;SDS011;10869;52.238;10.716;2022-11-09T07:08:14;2.77;;;0.90;;
21416;SDS011;10869;52.238;10.716;2022-11-09T07:10:43;5.70;;;1.10;;
21416;SDS011;10869;52.238;10.716;2022-11-09T07:13:12;4.03;;;1.20;;
21416;SDS011;10869;52.238;10.716;2022-11-09T07:15:38;2.17;;;1.10;;
21416;SDS011;10869;52.238;10.716;2022-11-09T07:18:05;2.37;;;1.20;;
21416;SDS011;10869;52.238;10.716;2022-11-09T07:20:34;4.67;;;1.07;;
21416;SDS011;10869;52.238;10.716;2022-11-09T07:22:59;4.33;;;1.43;;
21416;SDS011;10869;52.238;10.716;2022-11-09T07:25:25;3.83;;;1.13;;
21416;SDS011;10869;52.238;10.716;2022-11-09T07:27:51;3.03;;;1.20;;
21416;SDS011;10869;52.238;10.716;2022-11-09T07:30:17;2.10;;;1.00;;
21416;SDS011;10869;52.238;10.716;2022-11-09T07:32:43;3.13;;;1.00;;
21416;SDS011;10869;52.238;10.716;2022-11-09T07:35:09;3.50;;;1.67;;
21416;SDS011;10869;52.238;10.716;2022-11-09T07:40:57;2.23;;;1.10;;
21416;SDS011;10869;52.238;10.716;2022-11-09T07:43:38;5.50;;;1.30;;
21416;SDS011;10869;52.238;10.716;2022-11-09T07:48:41;3.13;;;1.10;;
21416;SDS011;10869;52.238;10.716;2022-11-09T07:53:44;4.77;;;1.50;;
21416;SDS011;10869;52.238;10.716;2022-11-09T07:56:10;3.40;;;1.50;;
21416;SDS011;10869;52.238;10.716;2022-11-09T07:58:36;3.57;;;1.30;;
21416;SDS011;10869;52.238;10.716;2022-11-09T08:01:05;5.20;;;1.60;;
21416;SDS011;10869;52.238;10.716;2022-11-09T08:03:32;4.47;;;1.17;;
21416;SDS011;10869;52.238;10.716;2022-11-09T08:05:58;4.87;;;1.50;;
21416;SDS011;10869;52.238;10.716;2022-11-09T08:08:24;3.30;;;1.50;;
21416;SDS011;10869;52.238;10.716;2022-11-09T08:10:49;2.50;;;0.90;;
21416;SDS011;10869;52.238;10.716;2022-11-09T08:13:17;5.43;;;1.40;;
21416;SDS011;10869;52.238;10.716;2022-11-09T08:15:43;4.13;;;1.10;;
21416;SDS011;10869;52.238;10.716;2022-11-09T08:18:10;4.80;;;1.43;;
21416;SDS011;10869;52.238;10.716;2022-11-09T08:20:38;2.30;;;0.90;;
21416;SDS011;10869;52.238;10.716;2022-11-09T08:23:04;3.87;;;1.20;;
21416;SDS011;10869;52.238;10.716;2022-11-09T08:25:34;5.87;;;1.30;;
21416;SDS011;10869;52.238;10.716;2022-11-09T08:28:00;5.53;;;1.63;;
21416;SDS011;10869;52.238;10.716;2022-11-09T08:30:27;4.77;;;1.10;;
21416;SDS011;10869;52.238;10.716;2022-11-09T08:33:01;4.73;;;1.10;;
21416;SDS011;10869;52.238;10.716;2022-11-09T08:35:28;5.53;;;1.37;;
21416;SDS011;10869;52.238;10.716;2022-11-09T08:37:54;3.50;;;1.03;;
21416;SDS011;10869;52.238;10.716;2022-11-09T08:40:24;2.03;;;0.90;;
21416;SDS011;10869;52.238;10.716;2022-11-09T08:42:50;6.50;;;1.10;;
21416;SDS011;10869;52.238;10.716;2022-11-09T08:45:18;3.13;;;1.30;;
21416;SDS011;10869;52.238;10.716;2022-11-09T08:50:19;3.07;;;1.10;;
21416;SDS011;10869;52.238;10.716;2022-11-09T08:52:45;3.13;;;1.00;;
21416;SDS011;10869;52.238;10.716;2022-11-09T08:55:11;4.33;;;0.97;;
21416;SDS011;10869;52.238;10.716;2022-11-09T08:57:37;3.37;;;0.83;;
21416;SDS011;10869;52.238;10.716;2022-11-09T09:03:25;2.47;;;1.20;;
21416;SDS011;10869;52.238;10.716;2022-11-09T09:08:43;3.07;;;1.00;;
21416;SDS011;10869;52.238;10.716;2022-11-09T09:11:08;2.20;;;0.80;;
21416;SDS011;10869;52.238;10.716;2022-11-09T09:13:35;3.13;;;0.77;;
21416;SDS011;10869;52.238;10.716;2022-11-09T09:23:03;5.13;;;0.93;;
21416;SDS011;10869;52.238;10.716;2022-11-09T09:25:40;2.87;;;0.63;;
21416;SDS011;10869;52.238;10.716;2022-11-09T09:28:09;3.23;;;1.00;;
21416;SDS011;10869;52.238;10.716;2022-11-09T09:30:36;2.80;;;0.80;;
21416;SDS011;10869;52.238;10.716;2022-11-09T09:36:05;5.07;;;0.70;;
21416;SDS011;10869;52.238;10.716;2022-11-09T09:38:31;2.20;;;0.63;;
21416;SDS011;10869;52.238;10.716;2022-11-09T09:40:58;2.73;;;0.80;;
21416;SDS011;10869;52.238;10.716;2022-11-09T09:46:01;2.00;;;0.70;;
21416;SDS011;10869;52.238;10.716;2022-11-09T09:48:34;1.30;;;0.60;;
21416;SDS011;10869;52.238;10.716;2022-11-09T09:51:08;3.70;;;1.37;;
21416;SDS011;10869;52.238;10.716;2022-11-09T09:54:10;2.43;;;0.77;;
21416;SDS011;10869;52.238;10.716;2022-11-09T09:56:46;2.07;;;0.70;;
21416;SDS011;10869;52.238;10.716;2022-11-09T10:06:03;2.17;;;0.60;;
21416;SDS011;10869;52.238;10.716;2022-11-09T10:08:52;2.30;;;0.77;;
21416;SDS011;10869;52.238;10.716;2022-11-09T10:17:37;1.50;;;0.60;;
21416;SDS011;10869;52.238;10.716;2022-11-09T10:27:27;1.33;;;0.73;;
21416;SDS011;10869;52.238;10.716;2022-11-09T10:30:01;1.53;;;0.50;;
21416;SDS011;10869;52.238;10.716;2022-11-09T10:32:42;2.03;;;0.73;;
21416;SDS011;10869;52.238;10.716;2022-11-09T10:37:58;2.33;;;0.60;;
21416;SDS011;10869;52.238;10.716;2022-11-09T10:42:56;2.40;;;0.67;;
21416;SDS011;10869;52.238;10.716;2022-11-09T10:45:41;1.53;;;0.60;;
21416;SDS011;10869;52.238;10.716;2022-11-09T10:48:24;2.60;;;0.70;;
21416;SDS011;10869;52.238;10.716;2022-11-09T10:51:46;4.67;;;1.40;;
21416;SDS011;10869;52.238;10.716;2022-11-09T10:54:14;2.87;;;0.60;;
21416;SDS011;10869;52.238;10.716;2022-11-09T10:56:45;2.37;;;0.87;;
21416;SDS011;10869;52.238;10.716;2022-11-09T11:07:33;1.27;;;0.50;;
21416;SDS011;10869;52.238;10.716;2022-11-09T11:20:41;1.30;;;0.47;;
21416;SDS011;10869;52.238;10.716;2022-11-09T11:47:23;1.77;;;0.63;;
21416;SDS011;10869;52.238;10.716;2022-11-09T11:56:12;3.87;;;1.20;;
21416;SDS011;10869;52.238;10.716;2022-11-09T12:29:58;8.43;;;0.90;;
21416;SDS011;10869;52.238;10.716;2022-11-09T12:32:39;4.30;;;1.03;;
21416;SDS011;10869;52.238;10.716;2022-11-09T12:35:30;3.77;;;1.00;;
21416;SDS011;10869;52.238;10.716;2022-11-09T12:43:52;3.87;;;1.17;;
21416;SDS011;10869;52.238;10.716;2022-11-09T12:46:29;5.50;;;1.30;;
21416;SDS011;10869;52.238;10.716;2022-11-09T12:49:00;6.33;;;1.67;;
21416;SDS011;10869;52.238;10.716;2022-11-09T12:51:28;5.37;;;1.17;;
21416;SDS011;10869;52.238;10.716;2022-11-09T12:53:54;3.40;;;0.90;;
21416;SDS011;10869;52.238;10.716;2022-11-09T13:01:58;4.20;;;0.70;;
21416;SDS011;10869;52.238;10.716;2022-11-09T13:04:26;6.23;;;0.90;;
21416;SDS011;10869;52.238;10.716;2022-11-09T13:07:41;3.23;;;0.80;;
21416;SDS011;10869;52.238;10.716;2022-11-09T13:09:41;5.87;;;1.20;;
21416;SDS011;10869;52.238;10.716;2022-11-09T13:15:16;5.27;;;0.87;;
21416;SDS011;10869;52.238;10.716;2022-11-09T13:17:50;3.80;;;1.00;;
21416;SDS011;10869;52.238;10.716;2022-11-09T13:23:22;3.27;;;0.80;;
21416;SDS011;10869;52.238;10.716;2022-11-09T13:25:49;3.57;;;1.17;;
21416;SDS011;10869;52.238;10.716;2022-11-09T13:30:52;5.37;;;1.30;;
21416;SDS011;10869;52.238;10.716;2022-11-09T13:33:23;4.33;;;1.10;;
21416;SDS011;10869;52.238;10.716;2022-11-09T13:40:55;8.70;;;1.40;;
21416;SDS011;10869;52.238;10.716;2022-11-09T13:43:25;6.37;;;1.20;;
21416;SDS011;10869;52.238;10.716;2022-11-09T13:45:58;4.93;;;1.10;;
21416;SDS011;10869;52.238;10.716;2022-11-09T13:48:43;3.57;;;1.10;;
21416;SDS011;10869;52.238;10.716;2022-11-09T13:51:18;5.50;;;1.60;;
21416;SDS011;10869;52.238;10.716;2022-11-09T13:54:26;6.23;;;1.77;;
21416;SDS011;10869;52.238;10.716;2022-11-09T13:57:03;5.47;;;1.57;;
21416;SDS011;10869;52.238;10.716;2022-11-09T13:59:32;6.90;;;2.30;;
21416;SDS011;10869;52.238;10.716;2022-11-09T14:02:17;6.40;;;2.00;;
21416;SDS011;10869;52.238;10.716;2022-11-09T14:04:47;6.93;;;1.53;;
21416;SDS011;10869;52.238;10.716;2022-11-09T14:12:39;9.67;;;3.67;;
21416;SDS011;10869;52.238;10.716;2022-11-09T14:17:51;4.60;;;1.40;;
21416;SDS011;10869;52.238;10.716;2022-11-09T14:23:21;8.33;;;1.80;;
21416;SDS011;10869;52.238;10.716;2022-11-09T14:25:52;8.37;;;1.90;;
21416;SDS011;10869;52.238;10.716;2022-11-09T14:30:45;4.87;;;2.00;;
21416;SDS011;10869;52.238;10.716;2022-11-09T14:33:30;8.90;;;2.03;;
21416;SDS011;10869;52.238;10.716;2022-11-09T14:35:59;7.63;;;1.80;;
21416;SDS011;10869;52.238;10.716;2022-11-09T14:38:27;6.63;;;1.90;;
21416;SDS011;10869;52.238;10.716;2022-11-09T14:40:54;3.73;;;1.77;;
21416;SDS011;10869;52.238;10.716;2022-11-09T14:45:54;4.13;;;1.87;;
21416;SDS011;10869;52.238;10.716;2022-11-09T14:48:22;7.60;;;2.93;;
21416;SDS011;10869;52.238;10.716;2022-11-09T14:50:50;7.07;;;3.50;;
21416;SDS011;10869;52.238;10.716;2022-11-09T14:53:21;21.03;;;12.20;;
21416;SDS011;10869;52.238;10.716;2022-11-09T14:55:52;15.97;;;9.37;;
21416;SDS011;10869;52.238;10.716;2022-11-09T14:58:20;11.60;;;4.40;;
21416;SDS011;10869;52.238;10.716;2022-11-09T15:12:52;4.57;;;1.63;;
21416;SDS011;10869;52.238;10.716;2022-11-09T15:24:01;5.07;;;1.40;;
21416;SDS011;10869;52.238;10.716;2022-11-09T15:26:03;4.67;;;1.50;;
21416;SDS011;10869;52.238;10.716;2022-11-09T15:28:29;5.27;;;1.27;;
21416;SDS011;10869;52.238;10.716;2022-11-09T15:35:57;6.67;;;2.00;;
21416;SDS011;10869;52.238;10.716;2022-11-09T15:38:44;6.37;;;2.33;;
21416;SDS011;10869;52.238;10.716;2022-11-09T15:41:19;5.70;;;1.90;;
21416;SDS011;10869;52.238;10.716;2022-11-09T15:43:48;6.07;;;1.67;;
21416;SDS011;10869;52.238;10.716;2022-11-09T15:46:15;6.77;;;2.27;;
21416;SDS011;10869;52.238;10.716;2022-11-09T15:48:56;5.30;;;1.93;;
21416;SDS011;10869;52.238;10.716;2022-11-09T15:51:31;5.93;;;2.30;;
21416;SDS011;10869;52.238;10.716;2022-11-09T15:53:57;10.07;;;4.80;;
21416;SDS011;10869;52.238;10.716;2022-11-09T15:56:23;9.73;;;4.03;;
21416;SDS011;10869;52.238;10.716;2022-11-09T15:58:48;9.53;;;3.23;;
21416;SDS011;10869;52.238;10.716;2022-11-09T16:01:16;10.47;;;2.77;;
21416;SDS011;10869;52.238;10.716;2022-11-09T16:03:42;9.30;;;3.00;;
21416;SDS011;10869;52.238;10.716;2022-11-09T16:06:09;5.53;;;2.60;;
21416;SDS011;10869;52.238;10.716;2022-11-09T16:08:36;11.80;;;4.40;;
21416;SDS011;10869;52.238;10.716;2022-11-09T16:11:03;11.50;;;4.30;;
21416;SDS011;10869;52.238;10.716;2022-11-09T16:13:29;9.73;;;5.57;;
21416;SDS011;10869;52.238;10.716;2022-11-09T16:16:05;14.03;;;5.00;;
21416;SDS011;10869;52.238;10.716;2022-11-09T16:18:32;11.10;;;4.30;;
21416;SDS011;10869;52.238;10.716;2022-11-09T16:23:35;13.40;;;3.77;;
21416;SDS011;10869;52.238;10.716;2022-11-09T16:26:08;13.53;;;4.83;;
21416;SDS011;10869;52.238;10.716;2022-11-09T16:28:39;11.07;;;4.00;;
21416;SDS011;10869;52.238;10.716;2022-11-09T16:31:05;11.87;;;4.20;;
21416;SDS011;10869;52.238;10.716;2022-11-09T16:33:31;10.50;;;4.13;;
21416;SDS011;10869;52.238;10.716;2022-11-09T16:35:59;13.63;;;4.83;;
21416;SDS011;10869;52.238;10.716;2022-11-09T16:38:46;8.83;;;3.33;;
21416;SDS011;10869;52.238;10.716;2022-11-09T16:41:15;8.93;;;2.90;;
21416;SDS011;10869;52.238;10.716;2022-11-09T16:43:44;7.63;;;2.40;;
21416;SDS011;10869;52.238;10.716;2022-11-09T16:46:11;5.87;;;2.20;;
21416;SDS011;10869;52.238;10.716;2022-11-09T16:48:42;7.53;;;2.40;;
21416;SDS011;10869;52.238;10.716;2022-11-09T16:51:08;7.90;;;1.90;;
21416;SDS011;10869;52.238;10.716;2022-11-09T16:53:33;6.00;;;1.70;;
21416;SDS011;10869;52.238;10.716;2022-11-09T16:55:59;7.37;;;2.43;;
21416;SDS011;10869;52.238;10.716;2022-11-09T16:58:25;9.50;;;3.50;;
21416;SDS011;10869;52.238;10.716;2022-11-09T17:00:51;7.67;;;2.40;;
21416;SDS011;10869;52.238;10.716;2022-11-09T17:03:17;5.80;;;2.40;;
21416;SDS011;10869;52.238;10.716;2022-11-09T17:05:43;8.87;;;2.60;;
21416;SDS011;10869;52.238;10.716;2022-11-09T17:08:09;4.67;;;2.07;;
21416;SDS011;10869;52.238;10.716;2022-11-09T17:10:42;8.50;;;2.30;;
21416;SDS011;10869;52.238;10.716;2022-11-09T17:13:09;6.10;;;1.90;;
21416;SDS011;10869;52.238;10.716;2022-11-09T17:15:44;11.97;;;2.93;;
21416;SDS011;10869;52.238;10.716;2022-11-09T17:18:12;6.33;;;2.67;;
21416;SDS011;10869;52.238;10.716;2022-11-09T17:20:42;13.33;;;5.37;;
21416;SDS011;10869;52.238;10.716;2022-11-09T17:26:30;9.23;;;3.87;;
21416;SDS011;10869;52.238;10.716;2022-11-09T17:28:56;12.03;;;4.37;;
21416;SDS011;10869;52.238;10.716;2022-11-09T17:31:22;5.33;;;2.10;;
21416;SDS011;10869;52.238;10.716;2022-11-09T17:33:50;5.60;;;1.60;;
21416;SDS011;10869;52.238;10.716;2022-11-09T17:36:16;8.33;;;1.77;;
21416;SDS011;10869;52.238;10.716;2022-11-09T17:38:43;5.83;;;1.83;;
21416;SDS011;10869;52.238;10.716;2022-11-09T17:41:10;7.73;;;1.97;;
21416;SDS011;10869;52.238;10.716;2022-11-09T17:43:37;9.80;;;1.87;;
21416;SDS011;10869;52.238;10.716;2022-11-09T17:46:08;3.53;;;1.13;;
21416;SDS011;10869;52.238;10.716;2022-11-09T17:48:44;4.57;;;1.33;;
21416;SDS011;10869;52.238;10.716;2022-11-09T17:51:11;6.17;;;1.40;;
21416;SDS011;10869;52.238;10.716;2022-11-09T17:53:38;5.70;;;1.50;;
21416;SDS011;10869;52.238;10.716;2022-11-09T17:56:05;8.00;;;3.03;;
21416;SDS011;10869;52.238;10.716;2022-11-09T17:58:32;9.73;;;4.03;;
21416;SDS011;10869;52.238;10.716;2022-11-09T18:01:05;8.10;;;3.20;;
21416;SDS011;10869;52.238;10.716;2022-11-09T18:03:33;13.50;;;4.47;;
21416;SDS011;10869;52.238;10.716;2022-11-09T18:06:00;11.53;;;4.97;;
21416;SDS011;10869;52.238;10.716;2022-11-09T18:08:27;15.73;;;7.47;;
21416;SDS011;10869;52.238;10.716;2022-11-09T18:14:15;16.23;;;6.43;;
21416;SDS011;10869;52.238;10.716;2022-11-09T18:16:41;8.23;;;3.83;;
21416;SDS011;10869;52.238;10.716;2022-11-09T18:19:07;7.70;;;2.10;;
21416;SDS011;10869;52.238;10.716;2022-11-09T18:21:33;8.43;;;2.40;;
21416;SDS011;10869;52.238;10.716;2022-11-09T18:23:59;6.53;;;1.60;;
21416;SDS011;10869;52.238;10.716;2022-11-09T18:26:25;5.87;;;2.10;;
21416;SDS011;10869;52.238;10.716;2022-11-09T18:28:50;5.60;;;2.20;;
21416;SDS011;10869;52.238;10.716;2022-11-09T18:31:16;7.73;;;2.23;;
21416;SDS011;10869;52.238;10.716;2022-11-09T18:33:42;9.43;;;4.30;;
21416;SDS011;10869;52.238;10.716;2022-11-09T18:36:12;7.03;;;3.20;;
21416;SDS011;10869;52.238;10.716;2022-11-09T18:38:40;12.40;;;2.47;;
21416;SDS011;10869;52.238;10.716;2022-11-09T18:41:11;11.07;;;3.63;;
21416;SDS011;10869;52.238;10.716;2022-11-09T18:43:39;9.60;;;3.67;;
21416;SDS011;10869;52.238;10.716;2022-11-09T18:46:07;5.53;;;2.07;;
21416;SDS011;10869;52.238;10.716;2022-11-09T18:48:34;5.83;;;1.90;;
21416;SDS011;10869;52.238;10.716;2022-11-09T18:51:02;7.10;;;1.90;;
21416;SDS011;10869;52.238;10.716;2022-11-09T18:53:32;5.27;;;1.83;;
21416;SDS011;10869;52.238;10.716;2022-11-09T18:56:03;6.47;;;1.80;;
21416;SDS011;10869;52.238;10.716;2022-11-09T18:58:31;6.53;;;1.70;;
21416;SDS011;10869;52.238;10.716;2022-11-09T19:04:19;5.73;;;1.40;;
21416;SDS011;10869;52.238;10.716;2022-11-09T19:06:46;6.90;;;1.53;;
21416;SDS011;10869;52.238;10.716;2022-11-09T19:09:13;7.70;;;1.60;;
21416;SDS011;10869;52.238;10.716;2022-11-09T19:12:00;8.10;;;1.57;;
21416;SDS011;10869;52.238;10.716;2022-11-09T19:14:27;6.70;;;2.37;;
21416;SDS011;10869;52.238;10.716;2022-11-09T19:16:56;6.77;;;2.10;;
21416;SDS011;10869;52.238;10.716;2022-11-09T19:19:28;7.07;;;1.90;;
21416;SDS011;10869;52.238;10.716;2022-11-09T19:22:01;10.87;;;3.20;;
21416;SDS011;10869;52.238;10.716;2022-11-09T19:25:01;12.10;;;3.40;;
21416;SDS011;10869;52.238;10.716;2022-11-09T19:27:27;10.77;;;2.83;;
21416;SDS011;10869;52.238;10.716;2022-11-09T19:29:53;6.53;;;2.10;;
21416;SDS011;10869;52.238;10.716;2022-11-09T19:32:19;7.00;;;1.90;;
21416;SDS011;10869;52.238;10.716;2022-11-09T19:38:07;6.80;;;1.97;;
21416;SDS011;10869;52.238;10.716;2022-11-09T19:40:33;8.37;;;2.20;;
21416;SDS011;10869;52.238;10.716;2022-11-09T19:42:59;8.10;;;2.03;;
21416;SDS011;10869;52.238;10.716;2022-11-09T19:48:47;7.57;;;2.27;;
21416;SDS011;10869;52.238;10.716;2022-11-09T19:54:36;7.37;;;1.90;;
21416;SDS011;10869;52.238;10.716;2022-11-09T19:57:02;8.73;;;2.00;;
21416;SDS011;10869;52.238;10.716;2022-11-09T19:59:27;12.50;;;2.33;;
21416;SDS011;10869;52.238;10.716;2022-11-09T20:01:53;8.93;;;2.17;;
21416;SDS011;10869;52.238;10.716;2022-11-09T20:04:19;8.10;;;2.90;;
21416;SDS011;10869;52.238;10.716;2022-11-09T20:10:07;9.17;;;2.93;;
21416;SDS011;10869;52.238;10.716;2022-11-09T20:15:59;7.93;;;1.80;;
21416;SDS011;10869;52.238;10.716;2022-11-09T20:21:53;8.80;;;2.00;;
21416;SDS011;10869;52.238;10.716;2022-11-09T20:27:46;9.03;;;1.60;;
21416;SDS011;10869;52.238;10.716;2022-11-09T20:30:11;4.53;;;1.40;;
21416;SDS011;10869;52.238;10.716;2022-11-09T20:32:37;8.87;;;2.53;;
21416;SDS011;10869;52.238;10.716;2022-11-09T20:35:03;9.40;;;1.80;;
21416;SDS011;10869;52.238;10.716;2022-11-09T20:37:30;5.73;;;1.97;;
21416;SDS011;10869;52.238;10.716;2022-11-09T20:39:55;4.07;;;1.67;;
21416;SDS011;10869;52.238;10.716;2022-11-09T20:42:21;7.20;;;1.83;;
21416;SDS011;10869;52.238;10.716;2022-11-09T20:44:47;7.20;;;2.20;;
21416;SDS011;10869;52.238;10.716;2022-11-09T20:47:12;12.07;;;2.80;;
21416;SDS011;10869;52.238;10.716;2022-11-09T20:49:40;8.27;;;2.10;;
21416;SDS011;10869;52.238;10.716;2022-11-09T20:52:07;7.03;;;2.00;;
21416;SDS011;10869;52.238;10.716;2022-11-09T20:54:33;10.87;;;2.03;;
21416;SDS011;10869;52.238;10.716;2022-11-09T21:00:22;10.93;;;3.03;;
21416;SDS011;10869;52.238;10.716;2022-11-09T21:06:10;9.77;;;2.27;;
21416;SDS011;10869;52.238;10.716;2022-11-09T21:08:37;9.33;;;2.67;;
21416;SDS011;10869;52.238;10.716;2022-11-09T21:11:03;11.60;;;3.00;;
21416;SDS011;10869;52.238;10.716;2022-11-09T21:17:00;15.73;;;3.33;;
21416;SDS011;10869;52.238;10.716;2022-11-09T21:19:57;9.73;;;2.80;;
21416;SDS011;10869;52.238;10.716;2022-11-09T21:23:12;9.27;;;2.83;;
21416;SDS011;10869;52.238;10.716;2022-11-09T21:25:38;9.27;;;3.13;;
21416;SDS011;10869;52.238;10.716;2022-11-09T21:28:24;9.70;;;2.83;;
21416;SDS011;10869;52.238;10.716;2022-11-09T21:34:32;10.77;;;3.17;;
21416;SDS011;10869;52.238;10.716;2022-11-09T21:40:20;12.47;;;3.17;;
21416;SDS011;10869;52.238;10.716;2022-11-09T21:42:46;14.73;;;3.67;;
21416;SDS011;10869;52.238;10.716;2022-11-09T21:45:12;9.90;;;3.30;;
21416;SDS011;10869;52.238;10.716;2022-11-09T21:47:38;15.87;;;3.50;;
21416;SDS011;10869;52.238;10.716;2022-11-09T21:53:26;14.23;;;3.10;;
21416;SDS011;10869;52.238;10.716;2022-11-09T21:55:51;10.23;;;3.37;;
21416;SDS011;10869;52.238;10.716;2022-11-09T21:58:17;11.27;;;2.80;;
21416;SDS011;10869;52.238;10.716;2022-11-09T22:00:45;8.93;;;2.10;;
21416;SDS011;10869;52.238;10.716;2022-11-09T22:06:33;11.63;;;2.43;;
21416;SDS011;10869;52.238;10.716;2022-11-09T22:12:24;11.00;;;2.50;;
21416;SDS011;10869;52.238;10.716;2022-11-09T22:18:34;10.57;;;2.50;;
21416;SDS011;10869;52.238;10.716;2022-11-09T22:21:22;10.47;;;2.30;;
21416;SDS011;10869;52.238;10.716;2022-11-09T22:27:10;9.83;;;2.60;;
21416;SDS011;10869;52.238;10.716;2022-11-09T22:29:36;7.50;;;2.10;;
21416;SDS011;10869;52.238;10.716;2022-11-09T22:32:02;9.27;;;2.13;;
21416;SDS011;10869;52.238;10.716;2022-11-09T22:34:28;8.50;;;2.10;;
21416;SDS011;10869;52.238;10.716;2022-11-09T22:36:57;13.40;;;2.37;;
21416;SDS011;10869;52.238;10.716;2022-11-09T22:39:26;11.33;;;3.57;;
21416;SDS011;10869;52.238;10.716;2022-11-09T22:41:52;8.13;;;2.97;;
21416;SDS011;10869;52.238;10.716;2022-11-09T22:44:19;10.50;;;2.73;;
21416;SDS011;10869;52.238;10.716;2022-11-09T22:46:46;15.97;;;3.77;;
21416;SDS011;10869;52.238;10.716;2022-11-09T22:49:12;11.03;;;3.53;;
21416;SDS011;10869;52.238;10.716;2022-11-09T22:51:38;9.27;;;2.70;;
21416;SDS011;10869;52.238;10.716;2022-11-09T22:54:04;14.80;;;3.60;;
21416;SDS011;10869;52.238;10.716;2022-11-09T22:56:30;15.47;;;3.40;;
21416;SDS011;10869;52.238;10.716;2022-11-09T22:58:55;11.47;;;3.53;;
21416;SDS011;10869;52.238;10.716;2022-11-09T23:01:21;9.00;;;3.43;;
21416;SDS011;10869;52.238;10.716;2022-11-09T23:03:47;11.03;;;3.00;;
21416;SDS011;10869;52.238;10.716;2022-11-09T23:06:14;11.23;;;3.73;;
21416;SDS011;10869;52.238;10.716;2022-11-09T23:08:43;11.73;;;3.43;;
21416;SDS011;10869;52.238;10.716;2022-11-09T23:11:10;11.33;;;3.60;;
21416;SDS011;10869;52.238;10.716;2022-11-09T23:13:48;11.47;;;3.57;;
21416;SDS011;10869;52.238;10.716;2022-11-09T23:16:17;11.30;;;3.70;;
21416;SDS011;10869;52.238;10.716;2022-11-09T23:18:44;12.90;;;4.00;;
21416;SDS011;10869;52.238;10.716;2022-11-09T23:21:29;16.00;;;3.73;;
21416;SDS011;10869;52.238;10.716;2022-11-09T23:23:57;13.17;;;3.87;;
21416;SDS011;10869;52.238;10.716;2022-11-09T23:26:31;17.50;;;3.83;;
21416;SDS011;10869;52.238;10.716;2022-11-09T23:28:58;10.50;;;3.10;;
21416;SDS011;10869;52.238;10.716;2022-11-09T23:31:24;8.97;;;2.83;;
21416;SDS011;10869;52.238;10.716;2022-11-09T23:33:51;13.77;;;3.27;;
21416;SDS011;10869;52.238;10.716;2022-11-09T23:36:21;13.97;;;3.53;;
21416;SDS011;10869;52.238;10.716;2022-11-09T23:38:48;11.27;;;3.27;;
21416;SDS011;10869;52.238;10.716;2022-11-09T23:41:14;13.90;;;3.47;;
21416;SDS011;10869;52.238;10.716;2022-11-09T23:43:40;10.50;;;2.37;;